createdAt,value
2022-09-16T00:00:07.564Z,13.80
2022-09-16T00:02:36.868Z,13.80
2022-09-16T00:05:06.828Z,13.80
2022-09-16T00:07:33.628Z,13.80
2022-09-16T00:10:00.246Z,13.80
2022-09-16T00:12:27.107Z,13.80
2022-09-16T00:14:54.038Z,13.90
2022-09-16T00:17:21.363Z,13.90
2022-09-16T00:19:49.443Z,13.90
2022-09-16T00:22:16.637Z,13.90
2022-09-16T00:24:43.270Z,13.90
2022-09-16T00:27:10.599Z,13.80
2022-09-16T00:29:37.431Z,13.70
2022-09-16T00:32:05.295Z,13.60
2022-09-16T00:34:31.859Z,13.50
2022-09-16T00:36:58.527Z,13.60
2022-09-16T00:39:25.424Z,13.50
2022-09-16T00:41:52.013Z,13.50
2022-09-16T00:44:58.229Z,13.50
2022-09-16T00:47:46.387Z,13.50
2022-09-16T00:50:21.921Z,13.60
2022-09-16T00:52:50.421Z,13.70
2022-09-16T00:55:23.375Z,13.60
2022-09-16T00:57:51.863Z,13.60
2022-09-16T01:00:18.785Z,13.60
2022-09-16T01:02:47.260Z,13.60
2022-09-16T01:05:21.210Z,13.60
2022-09-16T01:07:51.087Z,13.70
2022-09-16T01:10:23.511Z,13.70
2022-09-16T01:13:04.190Z,13.70
2022-09-16T01:15:55.486Z,13.70
2022-09-16T01:18:52.211Z,13.70
2022-09-16T02:09:12.234Z,12.80
2022-09-16T02:15:15.122Z,12.60
2022-09-16T02:17:55.132Z,12.50
2022-09-16T02:27:12.968Z,12.30
2022-09-16T02:29:44.332Z,12.30
2022-09-16T02:32:12.760Z,12.30
2022-09-16T02:34:46.382Z,12.30
2022-09-16T02:37:21.473Z,12.30
2022-09-16T02:39:57.607Z,12.30
2022-09-16T02:42:24.355Z,12.30
2022-09-16T02:44:51.023Z,12.20
2022-09-16T02:47:29.434Z,12.20
2022-09-16T02:50:05.365Z,12.10
2022-09-16T02:52:43.303Z,12.00
2022-09-16T02:55:30.147Z,12.00
2022-09-16T02:57:57.132Z,11.90
2022-09-16T03:00:24.104Z,11.90
2022-09-16T03:02:51.198Z,11.80
2022-09-16T03:05:17.833Z,11.80
2022-09-16T03:07:44.521Z,11.70
2022-09-16T03:10:14.924Z,11.70
2022-09-16T03:12:49.430Z,11.80
2022-09-16T03:15:23.592Z,11.90
2022-09-16T03:18:13.694Z,12.00
2022-09-16T03:21:05.930Z,12.10
2022-09-16T03:24:03.402Z,12.10
2022-09-16T03:26:51.588Z,12.20
2022-09-16T03:29:27.812Z,12.30
2022-09-16T03:32:17.589Z,12.40
2022-09-16T03:34:51.615Z,12.50
2022-09-16T03:37:21.098Z,12.60
2022-09-16T03:39:53.650Z,12.60
2022-09-16T03:42:20.968Z,12.70
2022-09-16T03:44:47.821Z,12.70
2022-09-16T03:47:15.252Z,12.70
2022-09-16T03:49:41.912Z,12.70
2022-09-16T03:52:09.119Z,12.80
2022-09-16T03:54:36.589Z,12.80
2022-09-16T03:57:03.432Z,12.90
2022-09-16T03:59:30.340Z,12.90
2022-09-16T04:01:56.960Z,12.90
2022-09-16T04:04:23.870Z,12.90
2022-09-16T04:06:50.463Z,12.90
2022-09-16T04:09:17.072Z,12.90
2022-09-16T04:11:43.753Z,13.00
2022-09-16T04:14:11.001Z,12.90
2022-09-16T04:16:37.557Z,13.00
2022-09-16T04:19:05.083Z,13.00
2022-09-16T04:21:31.630Z,13.00
2022-09-16T04:23:58.178Z,13.00
2022-09-16T04:26:24.742Z,13.00
2022-09-16T04:28:54.782Z,13.00
2022-09-16T04:31:21.900Z,13.00
2022-09-16T04:33:48.860Z,13.00
2022-09-16T04:36:17.917Z,13.00
2022-09-16T04:38:46.022Z,12.90
2022-09-16T04:41:14.922Z,13.00
2022-09-16T04:43:41.809Z,12.90
2022-09-16T04:46:08.762Z,13.00
2022-09-16T04:48:36.021Z,13.10
2022-09-16T04:51:12.473Z,13.00
2022-09-16T04:53:40.399Z,13.00
2022-09-16T04:56:09.863Z,13.00
2022-09-16T04:58:36.979Z,13.00
2022-09-16T05:01:12.541Z,13.00
2022-09-16T05:03:44.277Z,13.10
2022-09-16T05:06:17.140Z,13.00
2022-09-16T05:08:46.657Z,13.00
2022-09-16T05:11:19.378Z,13.00
2022-09-16T05:13:46.465Z,13.00
2022-09-16T05:16:15.816Z,13.10
2022-09-16T05:18:43.809Z,13.00
2022-09-16T05:21:15.018Z,12.90
2022-09-16T05:23:45.844Z,12.90
2022-09-16T05:26:27.738Z,12.90
2022-09-16T05:28:54.455Z,12.90
2022-09-16T05:31:23.699Z,12.90
2022-09-16T05:34:02.030Z,13.00
2022-09-16T05:36:31.592Z,13.00
2022-09-16T05:39:21.566Z,13.00
2022-09-16T05:41:47.330Z,13.10
2022-09-16T05:44:14.617Z,13.00
2022-09-16T05:46:41.295Z,13.10
2022-09-16T05:49:08.581Z,13.00
2022-09-16T05:51:36.612Z,13.10
2022-09-16T05:54:03.352Z,13.00
2022-09-16T05:56:31.199Z,13.00
2022-09-16T05:58:59.855Z,13.10
2022-09-16T06:01:29.507Z,13.10
2022-09-16T06:03:56.287Z,13.10
2022-09-16T06:06:34.897Z,13.00
2022-09-16T06:09:14.132Z,13.00
2022-09-16T06:11:46.155Z,13.10
2022-09-16T06:14:13.774Z,13.00
2022-09-16T06:16:40.746Z,13.00
2022-09-16T06:19:13.039Z,12.90
2022-09-16T06:21:40.632Z,12.90
2022-09-16T06:24:10.560Z,12.90
2022-09-16T06:26:39.372Z,13.00
2022-09-16T06:29:07.083Z,12.90
2022-09-16T06:31:34.712Z,12.90
2022-09-16T06:34:01.287Z,13.00
2022-09-16T06:36:30.386Z,13.00
2022-09-16T06:38:57.560Z,13.10
2022-09-16T06:41:25.166Z,13.10
2022-09-16T06:43:52.268Z,13.00
2022-09-16T06:46:21.464Z,13.10
2022-09-16T06:48:50.838Z,13.00
2022-09-16T06:51:20.097Z,13.00
2022-09-16T06:53:46.807Z,12.90
2022-09-16T06:56:15.486Z,12.80
2022-09-16T06:58:44.427Z,12.80
2022-09-16T07:01:13.602Z,12.70
2022-09-16T07:03:43.568Z,12.60
2022-09-16T07:06:11.568Z,12.40
2022-09-16T07:08:38.928Z,12.20
2022-09-16T07:11:12.297Z,12.10
2022-09-16T07:13:39.539Z,12.00
2022-09-16T07:16:13.731Z,12.00
2022-09-16T07:18:41.378Z,12.00
2022-09-16T07:21:17.208Z,12.10
2022-09-16T07:23:44.806Z,12.10
2022-09-16T07:26:22.715Z,12.10
2022-09-16T07:28:50.033Z,12.10
2022-09-16T07:31:19.155Z,12.20
2022-09-16T07:33:48.345Z,12.20
2022-09-16T07:36:18.003Z,12.10
2022-09-16T07:38:44.750Z,12.20
2022-09-16T07:41:20.235Z,12.00
2022-09-16T07:43:47.795Z,12.10
2022-09-16T07:46:19.672Z,12.10
2022-09-16T07:48:48.501Z,12.20
2022-09-16T07:51:17.945Z,12.20
2022-09-16T07:53:45.573Z,12.10
2022-09-16T07:56:15.084Z,12.20
2022-09-16T07:58:42.139Z,12.40
2022-09-16T08:01:09.278Z,12.50
2022-09-16T08:03:37.248Z,12.50
2022-09-16T08:06:09.507Z,12.70
2022-09-16T08:08:36.520Z,13.10
2022-09-16T08:11:04.105Z,13.00
2022-09-16T08:13:32.860Z,13.30
2022-09-16T08:16:17.617Z,13.40
2022-09-16T08:18:45.790Z,13.30
2022-09-16T08:21:15.537Z,13.30
2022-09-16T08:23:42.412Z,13.20
2022-09-16T08:26:13.853Z,13.20
2022-09-16T08:28:57.536Z,13.20
2022-09-16T08:31:29.441Z,13.20
2022-09-16T08:33:56.306Z,13.10
2022-09-16T08:36:24.647Z,13.10
2022-09-16T08:38:54.566Z,13.10
2022-09-16T08:41:49.111Z,13.20
2022-09-16T08:44:20.501Z,13.30
2022-09-16T08:47:00.625Z,13.40
2022-09-16T08:49:41.177Z,13.60
2022-09-16T08:52:29.660Z,13.50
2022-09-16T08:55:02.287Z,13.40
2022-09-16T08:57:33.300Z,13.50
2022-09-16T09:00:05.065Z,13.60
2022-09-16T09:02:58.824Z,13.80
2022-09-16T09:05:41.365Z,13.90
2022-09-16T09:08:32.840Z,14.00
2022-09-16T09:11:26.301Z,14.10
2022-09-16T09:13:57.271Z,14.20
2022-09-16T09:16:47.017Z,14.30
2022-09-16T09:19:42.020Z,14.30
2022-09-16T09:22:38.064Z,14.20
2022-09-16T09:25:49.629Z,14.10
2022-09-16T09:28:21.206Z,14.20
2022-09-16T09:31:03.671Z,14.20
2022-09-16T09:33:48.817Z,14.20
2022-09-16T09:37:03.492Z,14.20
2022-09-16T09:39:40.043Z,14.10
2022-09-16T09:42:16.423Z,14.20
2022-09-16T09:44:49.028Z,14.20
2022-09-16T09:47:43.141Z,14.20
2022-09-16T09:50:26.020Z,14.30
2022-09-16T09:53:14.527Z,14.40
2022-09-16T09:55:42.894Z,14.40
2022-09-16T09:58:30.915Z,14.40
2022-09-16T10:00:57.888Z,14.50
2022-09-16T10:03:25.830Z,14.40
2022-09-16T10:05:52.500Z,14.40
2022-09-16T10:08:26.297Z,14.30
2022-09-16T10:10:55.942Z,14.30
2022-09-16T10:13:25.501Z,14.20
2022-09-16T10:16:12.755Z,14.20
2022-09-16T10:18:40.289Z,14.10
2022-09-16T10:21:13.107Z,14.00
2022-09-16T10:23:39.891Z,14.00
2022-09-16T10:26:26.849Z,13.90
2022-09-16T10:29:29.076Z,13.90
2022-09-16T10:31:56.448Z,13.80
2022-09-16T10:34:33.477Z,13.70
2022-09-16T10:37:07.880Z,13.70
2022-09-16T10:39:34.742Z,13.70
2022-09-16T10:42:02.772Z,13.80
2022-09-16T10:44:32.409Z,13.90
2022-09-16T10:47:01.940Z,14.00
2022-09-16T10:49:44.918Z,14.20
2022-09-16T10:52:42.611Z,14.50
2022-09-16T10:55:24.598Z,14.80
2022-09-16T10:57:52.033Z,14.80
2022-09-16T11:00:20.040Z,14.80
2022-09-16T11:03:13.818Z,14.90
2022-09-16T11:05:48.146Z,14.50
2022-09-16T11:08:37.038Z,14.30
2022-09-16T11:11:14.587Z,14.30
2022-09-16T11:13:52.977Z,14.40
2022-09-16T11:16:28.612Z,14.40
2022-09-16T11:19:54.122Z,14.20
2022-09-16T11:22:57.323Z,14.10
2022-09-16T11:25:41.056Z,14.10
2022-09-16T11:28:44.440Z,14.20
2022-09-16T11:31:13.899Z,14.40
2022-09-16T11:33:49.912Z,14.50
2022-09-16T11:36:41.674Z,14.50
2022-09-16T11:39:17.665Z,14.70
2022-09-16T11:42:03.159Z,14.80
2022-09-16T11:44:48.091Z,14.90
2022-09-16T11:47:47.578Z,14.80
2022-09-16T11:50:48.158Z,14.90
2022-09-16T11:53:30.958Z,15.00
2022-09-16T11:56:04.597Z,15.40
2022-09-16T11:58:45.333Z,15.80
2022-09-16T12:01:35.354Z,15.90
2022-09-16T12:04:43.843Z,16.30
2022-09-16T12:07:29.459Z,16.70
2022-09-16T12:10:05.127Z,16.70
2022-09-16T12:15:39.630Z,17.00
2022-09-16T12:18:21.685Z,17.20
2022-09-16T12:20:57.016Z,17.20
2022-09-16T12:23:31.982Z,16.90
2022-09-16T12:26:15.155Z,16.40
2022-09-16T12:29:14.960Z,15.80
2022-09-16T12:32:00.503Z,15.60
2022-09-16T12:34:41.191Z,15.80
2022-09-16T12:37:10.786Z,16.40
2022-09-16T12:42:35.875Z,17.00
2022-09-16T12:45:40.472Z,17.30
2022-09-16T12:48:12.858Z,17.10
2022-09-16T12:51:07.493Z,16.90
2022-09-16T12:53:51.794Z,16.80
2022-09-16T12:56:33.665Z,16.90
2022-09-16T12:59:21.863Z,16.80
2022-09-16T13:01:54.619Z,16.70
2022-09-16T13:04:32.080Z,16.40
2022-09-16T13:07:02.081Z,16.20
2022-09-16T13:09:32.964Z,16.10
2022-09-16T13:14:53.957Z,16.30
2022-09-16T13:17:53.155Z,16.60
2022-09-16T13:20:33.364Z,16.70
2022-09-16T13:23:08.743Z,17.10
2022-09-16T13:25:55.508Z,17.40
2022-09-16T13:28:35.169Z,17.70
2022-09-16T13:31:14.161Z,17.70
2022-09-16T13:33:48.116Z,17.70
2022-09-16T13:36:23.403Z,18.00
2022-09-16T13:39:14.333Z,18.20
2022-09-16T13:41:43.652Z,18.40
2022-09-16T13:44:33.880Z,18.50
2022-09-16T13:47:31.932Z,18.70
2022-09-16T13:50:14.795Z,18.70
2022-09-16T13:52:42.561Z,18.10
2022-09-16T13:55:22.106Z,17.40
2022-09-16T13:58:01.066Z,17.00
2022-09-16T14:00:51.068Z,16.90
2022-09-16T14:03:33.692Z,16.80
2022-09-16T14:06:15.173Z,16.60
2022-09-16T14:09:02.691Z,16.40
2022-09-16T14:11:59.120Z,16.80
2022-09-16T14:14:46.503Z,17.10
2022-09-16T14:17:24.857Z,17.30
2022-09-16T14:19:56.779Z,17.60
2022-09-16T14:22:25.686Z,17.70
2022-09-16T14:25:00.937Z,17.90
2022-09-16T14:27:36.594Z,17.80
2022-09-16T14:30:17.073Z,17.80
2022-09-16T14:32:44.847Z,17.60
2022-09-16T14:35:24.716Z,17.50
2022-09-16T14:37:56.482Z,17.50
2022-09-16T14:40:25.769Z,17.10
2022-09-16T14:42:57.012Z,17.00
2022-09-16T14:45:23.869Z,17.10
2022-09-16T14:47:53.234Z,17.20
2022-09-16T14:50:28.192Z,17.10
2022-09-16T14:53:02.611Z,16.90
2022-09-16T14:55:31.639Z,16.70
2022-09-16T14:57:59.837Z,16.70
2022-09-16T15:01:09.045Z,16.80
2022-09-16T15:03:45.090Z,16.90
2022-09-16T15:06:20.085Z,17.10
2022-09-16T15:08:51.845Z,16.90
2022-09-16T15:11:46.518Z,16.80
2022-09-16T15:14:09.932Z,16.50
2022-09-16T15:16:48.374Z,16.50
2022-09-16T15:19:27.632Z,16.40
2022-09-16T15:21:55.540Z,16.40
2022-09-16T15:24:30.964Z,16.40
2022-09-16T15:26:59.037Z,16.40
2022-09-16T15:29:25.635Z,16.30
2022-09-16T15:31:52.816Z,16.20
2022-09-16T15:34:20.647Z,16.10
2022-09-16T15:36:54.178Z,16.00
2022-09-16T15:39:34.341Z,16.00
2022-09-16T15:42:13.238Z,16.00
2022-09-16T15:45:00.568Z,16.00
2022-09-16T15:47:37.533Z,16.30
2022-09-16T15:50:09.528Z,16.50
2022-09-16T15:52:55.401Z,16.10
2022-09-16T15:55:53.820Z,15.90
2022-09-16T15:58:32.288Z,15.80
2022-09-16T16:01:03.183Z,15.60
2022-09-16T16:03:37.415Z,15.40
2022-09-16T16:06:05.094Z,15.30
2022-09-16T16:08:51.025Z,15.20
2022-09-16T16:11:18.844Z,15.10
2022-09-16T16:13:45.992Z,15.20
2022-09-16T16:16:15.472Z,15.20
2022-09-16T16:18:46.165Z,15.20
2022-09-16T16:21:16.051Z,15.10
2022-09-16T16:23:43.544Z,15.10
2022-09-16T16:26:11.536Z,15.10
2022-09-16T16:28:38.710Z,15.20
2022-09-16T16:31:16.979Z,15.20
2022-09-16T16:33:45.185Z,15.30
2022-09-16T16:36:16.852Z,15.20
2022-09-16T16:38:45.442Z,15.10
2022-09-16T16:41:12.445Z,15.00
2022-09-16T16:43:40.303Z,14.80
2022-09-16T16:46:07.143Z,14.80
2022-09-16T16:48:34.152Z,14.70
2022-09-16T16:51:04.961Z,14.70
2022-09-16T16:53:32.158Z,14.70
2022-09-16T16:56:14.551Z,14.50
2022-09-16T16:58:43.008Z,14.40
2022-09-16T17:01:18.333Z,14.20
2022-09-16T17:03:47.556Z,14.20
2022-09-16T17:06:14.360Z,14.10
2022-09-16T17:08:41.031Z,13.90
2022-09-16T17:11:11.987Z,13.80
2022-09-16T17:13:40.704Z,13.60
2022-09-16T17:16:08.974Z,13.40
2022-09-16T17:18:37.281Z,13.30
2022-09-16T17:21:12.081Z,13.10
2022-09-16T17:23:39.298Z,13.00
2022-09-16T17:26:09.131Z,12.80
2022-09-16T17:28:40.446Z,12.70
2022-09-16T17:31:11.978Z,12.60
2022-09-16T17:33:38.636Z,12.50
2022-09-16T17:36:07.881Z,12.50
2022-09-16T17:38:35.507Z,12.50
2022-09-16T17:41:04.654Z,12.50
2022-09-16T17:43:32.618Z,12.60
2022-09-16T17:46:01.234Z,12.60
2022-09-16T17:48:28.993Z,12.60
2022-09-16T17:50:56.389Z,12.60
2022-09-16T17:53:23.257Z,12.60
2022-09-16T17:55:50.829Z,12.60
2022-09-16T17:58:17.851Z,12.40
2022-09-16T18:00:45.898Z,12.40
2022-09-16T18:03:12.782Z,13.20
2022-09-16T18:05:39.720Z,12.10
2022-09-16T18:08:06.651Z,12.60
2022-09-16T18:10:33.296Z,12.00
2022-09-16T18:12:59.987Z,11.50
2022-09-16T18:15:27.127Z,13.50
2022-09-16T18:17:54.512Z,11.90
2022-09-16T18:20:21.456Z,11.80
2022-09-16T18:22:48.554Z,11.90
2022-09-16T18:25:15.206Z,11.90
2022-09-16T18:27:44.100Z,11.90
2022-09-16T18:30:11.559Z,11.80
2022-09-16T18:32:38.141Z,12.00
2022-09-16T18:35:05.558Z,11.90
2022-09-16T18:37:32.127Z,12.00
2022-09-16T18:39:58.711Z,11.90
2022-09-16T18:42:25.387Z,11.80
2022-09-16T18:44:52.036Z,12.10
2022-09-16T18:47:18.585Z,11.70
2022-09-16T18:49:45.139Z,11.50
2022-09-16T18:52:11.659Z,11.50
2022-09-16T18:54:38.280Z,11.70
2022-09-16T18:57:04.878Z,11.70
2022-09-16T18:59:34.030Z,12.00
2022-09-16T19:02:03.327Z,11.70
2022-09-16T19:04:32.375Z,11.70
2022-09-16T19:07:10.189Z,11.80
2022-09-16T19:09:39.671Z,11.80
2022-09-16T19:14:34.735Z,11.60
2022-09-16T19:17:01.391Z,11.60
2022-09-16T19:19:28.019Z,11.40
2022-09-16T19:21:54.624Z,11.40
2022-09-16T19:24:24.056Z,11.40
2022-09-16T19:26:55.131Z,11.30
2022-09-16T19:31:54.741Z,11.30
2022-09-16T19:34:22.037Z,11.30
2022-09-16T19:36:49.107Z,11.20
2022-09-16T19:39:15.883Z,11.20
2022-09-16T19:41:42.881Z,11.10
2022-09-16T19:44:19.232Z,11.10
2022-09-16T19:46:49.664Z,11.00
2022-09-16T19:49:19.872Z,11.10
2022-09-16T19:51:48.192Z,11.00
2022-09-16T19:54:15.486Z,11.00
2022-09-16T19:56:50.140Z,11.00
2022-09-16T19:59:20.703Z,10.90
2022-09-16T20:01:47.949Z,10.90
2022-09-16T20:04:15.697Z,10.90
2022-09-16T20:06:47.226Z,10.90
2022-09-16T20:09:15.484Z,10.80
2022-09-16T20:11:44.978Z,10.90
2022-09-16T20:14:15.462Z,10.90
2022-09-16T20:16:42.749Z,10.90
2022-09-16T20:19:12.211Z,10.90
2022-09-16T20:21:38.888Z,10.90
2022-09-16T20:24:07.733Z,10.90
2022-09-16T20:26:36.146Z,10.90
2022-09-16T20:29:03.553Z,10.90
2022-09-16T20:31:33.198Z,10.90
2022-09-16T20:34:00.098Z,10.90
2022-09-16T20:36:31.719Z,10.90
2022-09-16T20:38:59.782Z,10.80
2022-09-16T20:41:29.380Z,10.80
2022-09-16T20:43:56.538Z,10.80
2022-09-16T20:46:26.123Z,10.70
2022-09-16T20:48:56.956Z,10.70
2022-09-16T20:51:25.423Z,10.70
2022-09-16T20:53:57.258Z,10.70
2022-09-16T20:56:24.488Z,10.70
2022-09-16T20:58:51.536Z,10.60
2022-09-16T21:01:23.677Z,10.60
2022-09-16T21:03:55.490Z,10.60
2022-09-16T21:06:22.987Z,10.50
2022-09-16T21:08:56.555Z,10.50
2022-09-16T21:11:23.509Z,10.50
2022-09-16T21:13:55.488Z,10.40
2022-09-16T21:16:23.242Z,10.40
2022-09-16T21:18:57.062Z,10.50
2022-09-16T21:21:25.011Z,10.50
2022-09-16T21:23:53.748Z,10.60
2022-09-16T21:26:28.678Z,10.60
2022-09-16T21:29:03.866Z,10.60
2022-09-16T21:31:33.552Z,10.70
2022-09-16T21:34:02.944Z,10.60
2022-09-16T21:36:30.354Z,10.70
2022-09-16T21:38:57.302Z,10.70
2022-09-16T21:41:24.551Z,10.70
2022-09-16T21:43:55.404Z,10.70
2022-09-16T21:46:28.663Z,10.80
2022-09-16T21:48:58.216Z,10.70
2022-09-16T21:51:24.939Z,10.70
2022-09-16T21:53:51.708Z,10.60
2022-09-16T21:56:22.991Z,10.50
2022-09-16T21:58:54.432Z,10.50
2022-09-16T22:01:30.088Z,10.40
2022-09-16T22:03:59.966Z,10.30
2022-09-16T22:06:27.146Z,10.30
2022-09-16T22:08:55.098Z,10.20
2022-09-16T22:11:23.406Z,10.20
2022-09-16T22:13:51.076Z,10.10
2022-09-16T22:16:27.952Z,10.10
2022-09-16T22:18:58.684Z,10.00
2022-09-16T22:21:27.872Z,10.00
2022-09-16T22:23:54.865Z,10.00
2022-09-16T22:26:23.005Z,10.00
2022-09-16T22:28:50.283Z,9.90
2022-09-16T22:31:19.944Z,9.90
2022-09-16T22:33:48.999Z,10.00
2022-09-16T22:36:18.402Z,10.00
2022-09-16T22:38:47.098Z,10.00
2022-09-16T22:41:14.234Z,10.10
2022-09-16T22:43:43.725Z,10.10
2022-09-16T22:46:18.926Z,10.10
2022-09-16T22:48:46.211Z,10.10
2022-09-16T22:51:14.489Z,10.00
2022-09-16T22:53:42.586Z,10.10
2022-09-16T22:56:18.232Z,10.10
2022-09-16T22:58:45.982Z,10.10
2022-09-16T23:01:15.772Z,10.10
2022-09-16T23:03:43.609Z,10.10
2022-09-16T23:06:12.980Z,10.10
2022-09-16T23:08:42.680Z,10.10
2022-09-16T23:11:13.160Z,10.00
2022-09-16T23:13:41.910Z,9.90
2022-09-16T23:16:15.832Z,9.90
2022-09-16T23:18:43.876Z,9.90
2022-09-16T23:21:13.574Z,9.90
2022-09-16T23:23:42.732Z,9.90
2022-09-16T23:26:15.374Z,9.90
2022-09-16T23:28:42.777Z,9.90
2022-09-16T23:31:12.034Z,9.90
2022-09-16T23:33:39.694Z,9.80
2022-09-16T23:36:07.905Z,9.90
2022-09-16T23:38:36.377Z,9.80
2022-09-16T23:41:10.662Z,9.70
2022-09-16T23:43:38.258Z,9.70
2022-09-16T23:48:35.203Z,9.80
2022-09-16T23:51:02.599Z,9.80
2022-09-16T23:53:29.331Z,9.70
2022-09-16T23:55:55.954Z,9.80
2022-09-16T23:58:22.503Z,9.70
